sensor_id;sensor_type;location;lat;lon;timestamp;pressure;altitude;pressure_sealevel;temperature;humidity
62025;BME280;47978;49.118;12.146;2024-01-06T00:01:28;96220.50;;;4.09;100.00
62025;BME280;47978;49.118;12.146;2024-01-06T00:05:31;96219.69;;;4.27;100.00
62025;BME280;47978;49.118;12.146;2024-01-06T00:09:32;96229.97;;;4.16;100.00
62025;BME280;47978;49.118;12.146;2024-01-06T00:13:40;96232.41;;;4.18;100.00
62025;BME280;47978;49.118;12.146;2024-01-06T00:17:42;96225.63;;;3.96;100.00
62025;BME280;47978;49.118;12.146;2024-01-06T00:21:45;96226.22;;;3.69;100.00
62025;BME280;47978;49.118;12.146;2024-01-06T00:25:46;96224.31;;;3.70;100.00
62025;BME280;47978;49.118;12.146;2024-01-06T00:29:48;96225.31;;;3.79;100.00
62025;BME280;47978;49.118;12.146;2024-01-06T00:33:49;96218.63;;;3.66;100.00
62025;BME280;47978;49.118;12.146;2024-01-06T00:37:52;96216.47;;;3.63;100.00
62025;BME280;47978;49.118;12.146;2024-01-06T00:41:54;96219.97;;;4.06;100.00
62025;BME280;47978;49.118;12.146;2024-01-06T00:45:55;96225.31;;;4.17;100.00
62025;BME280;47978;49.118;12.146;2024-01-06T00:49:57;96215.47;;;3.97;100.00
62025;BME280;47978;49.118;12.146;2024-01-06T00:54:00;96223.97;;;4.14;100.00
62025;BME280;47978;49.118;12.146;2024-01-06T00:58:01;96224.66;;;4.25;100.00
62025;BME280;47978;49.118;12.146;2024-01-06T01:02:03;96225.09;;;4.13;100.00
62025;BME280;47978;49.118;12.146;2024-01-06T01:06:05;96229.09;;;4.02;100.00
62025;BME280;47978;49.118;12.146;2024-01-06T01:10:09;96233.34;;;3.70;100.00
62025;BME280;47978;49.118;12.146;2024-01-06T01:14:10;96229.19;;;3.54;100.00
62025;BME280;47978;49.118;12.146;2024-01-06T01:18:12;96239.94;;;3.45;100.00
62025;BME280;47978;49.118;12.146;2024-01-06T01:22:14;96239.41;;;3.43;100.00
62025;BME280;47978;49.118;12.146;2024-01-06T01:26:17;96247.09;;;3.84;100.00
62025;BME280;47978;49.118;12.146;2024-01-06T01:30:19;96242.69;;;4.07;100.00
62025;BME280;47978;49.118;12.146;2024-01-06T01:34:21;96244.31;;;4.08;100.00
62025;BME280;47978;49.118;12.146;2024-01-06T01:38:22;96243.34;;;3.99;100.00
62025;BME280;47978;49.118;12.146;2024-01-06T01:42:25;96242.97;;;4.05;100.00
62025;BME280;47978;49.118;12.146;2024-01-06T01:46:28;96247.13;;;4.03;100.00
62025;BME280;47978;49.118;12.146;2024-01-06T01:50:30;96242.63;;;3.69;100.00
62025;BME280;47978;49.118;12.146;2024-01-06T01:54:31;96238.47;;;3.53;100.00
62025;BME280;47978;49.118;12.146;2024-01-06T01:58:34;96236.94;;;3.66;100.00
62025;BME280;47978;49.118;12.146;2024-01-06T02:02:36;96226.28;;;3.88;100.00
62025;BME280;47978;49.118;12.146;2024-01-06T02:06:37;96216.69;;;3.67;100.00
62025;BME280;47978;49.118;12.146;2024-01-06T02:10:39;96224.47;;;3.78;100.00
62025;BME280;47978;49.118;12.146;2024-01-06T02:14:42;96224.81;;;3.96;100.00
62025;BME280;47978;49.118;12.146;2024-01-06T02:18:43;96217.16;;;3.74;100.00
62025;BME280;47978;49.118;12.146;2024-01-06T02:22:47;96219.91;;;3.50;100.00
62025;BME280;47978;49.118;12.146;2024-01-06T02:26:48;96221.97;;;3.39;100.00
62025;BME280;47978;49.118;12.146;2024-01-06T02:30:50;96226.22;;;3.69;100.00
62025;BME280;47978;49.118;12.146;2024-01-06T02:34:52;96222.47;;;3.65;100.00
62025;BME280;47978;49.118;12.146;2024-01-06T02:38:55;96226.28;;;3.45;100.00
62025;BME280;47978;49.118;12.146;2024-01-06T02:42:56;96234.81;;;3.38;100.00
62025;BME280;47978;49.118;12.146;2024-01-06T02:46:58;96226.16;;;3.31;100.00
62025;BME280;47978;49.118;12.146;2024-01-06T02:51:00;96219.06;;;3.54;100.00
62025;BME280;47978;49.118;12.146;2024-01-06T02:55:04;96225.16;;;3.70;100.00
62025;BME280;47978;49.118;12.146;2024-01-06T02:59:05;96231.00;;;3.82;100.00
62025;BME280;47978;49.118;12.146;2024-01-06T03:03:07;96234.91;;;3.95;100.00
62025;BME280;47978;49.118;12.146;2024-01-06T03:07:09;96235.66;;;3.82;100.00
62025;BME280;47978;49.118;12.146;2024-01-06T03:11:11;96237.66;;;3.52;100.00
62025;BME280;47978;49.118;12.146;2024-01-06T03:15:13;96238.06;;;3.83;100.00
62025;BME280;47978;49.118;12.146;2024-01-06T03:19:15;96227.59;;;3.91;100.00
62025;BME280;47978;49.118;12.146;2024-01-06T03:23:17;96225.09;;;3.94;100.00
62025;BME280;47978;49.118;12.146;2024-01-06T03:27:19;96232.25;;;4.09;100.00
62025;BME280;47978;49.118;12.146;2024-01-06T03:31:21;96236.63;;;3.91;100.00
62025;BME280;47978;49.118;12.146;2024-01-06T03:35:23;96234.69;;;3.92;100.00
62025;BME280;47978;49.118;12.146;2024-01-06T03:39:24;96233.44;;;4.03;100.00
62025;BME280;47978;49.118;12.146;2024-01-06T03:43:27;96233.59;;;3.93;100.00
62025;BME280;47978;49.118;12.146;2024-01-06T03:47:29;96243.25;;;3.85;100.00
62025;BME280;47978;49.118;12.146;2024-01-06T03:51:30;96247.59;;;3.43;100.00
62025;BME280;47978;49.118;12.146;2024-01-06T03:55:32;96254.53;;;3.78;100.00
62025;BME280;47978;49.118;12.146;2024-01-06T03:59:35;96250.50;;;3.95;100.00
62025;BME280;47978;49.118;12.146;2024-01-06T04:03:38;96249.97;;;3.74;100.00
62025;BME280;47978;49.118;12.146;2024-01-06T04:07:39;96255.97;;;3.76;100.00
62025;BME280;47978;49.118;12.146;2024-01-06T04:11:41;96249.78;;;4.08;100.00
62025;BME280;47978;49.118;12.146;2024-01-06T04:15:44;96257.34;;;4.16;100.00
62025;BME280;47978;49.118;12.146;2024-01-06T04:19:45;96261.91;;;4.21;100.00
62025;BME280;47978;49.118;12.146;2024-01-06T04:23:47;96265.69;;;4.25;100.00
62025;BME280;47978;49.118;12.146;2024-01-06T04:27:49;96273.16;;;4.19;100.00
62025;BME280;47978;49.118;12.146;2024-01-06T04:31:52;96284.38;;;4.18;100.00
62025;BME280;47978;49.118;12.146;2024-01-06T04:35:54;96279.19;;;3.54;100.00
62025;BME280;47978;49.118;12.146;2024-01-06T04:39:55;96289.53;;;3.33;100.00
62025;BME280;47978;49.118;12.146;2024-01-06T04:43:57;96297.00;;;3.47;100.00
62025;BME280;47978;49.118;12.146;2024-01-06T04:48:00;96288.91;;;3.42;100.00
62025;BME280;47978;49.118;12.146;2024-01-06T04:52:01;96286.94;;;3.47;100.00
62025;BME280;47978;49.118;12.146;2024-01-06T04:56:03;96284.38;;;3.56;100.00
62025;BME280;47978;49.118;12.146;2024-01-06T05:00:06;96285.34;;;3.65;100.00
62025;BME280;47978;49.118;12.146;2024-01-06T05:04:09;96289.84;;;3.75;100.00
62025;BME280;47978;49.118;12.146;2024-01-06T05:08:10;96290.09;;;3.78;100.00
62025;BME280;47978;49.118;12.146;2024-01-06T05:12:12;96298.16;;;3.89;100.00
62025;BME280;47978;49.118;12.146;2024-01-06T05:16:14;96295.22;;;3.85;100.00
62025;BME280;47978;49.118;12.146;2024-01-06T05:20:17;96304.16;;;3.91;100.00
62025;BME280;47978;49.118;12.146;2024-01-06T05:24:18;96293.97;;;4.15;100.00
62025;BME280;47978;49.118;12.146;2024-01-06T05:28:20;96297.84;;;4.14;100.00
62025;BME280;47978;49.118;12.146;2024-01-06T05:32:21;96298.38;;;3.73;100.00
62025;BME280;47978;49.118;12.146;2024-01-06T05:36:24;96306.00;;;3.76;100.00
62025;BME280;47978;49.118;12.146;2024-01-06T05:40:26;96306.69;;;3.87;100.00
62025;BME280;47978;49.118;12.146;2024-01-06T05:44:27;96316.72;;;3.92;100.00
62025;BME280;47978;49.118;12.146;2024-01-06T05:48:29;96314.91;;;4.06;100.00
62025;BME280;47978;49.118;12.146;2024-01-06T05:52:32;96309.75;;;3.80;100.00
62025;BME280;47978;49.118;12.146;2024-01-06T05:56:34;96316.44;;;3.69;100.00
62025;BME280;47978;49.118;12.146;2024-01-06T06:00:35;96311.25;;;3.44;100.00
62025;BME280;47978;49.118;12.146;2024-01-06T06:04:37;96314.38;;;3.32;100.00
62025;BME280;47978;49.118;12.146;2024-01-06T06:08:41;96314.56;;;3.17;100.00
62025;BME280;47978;49.118;12.146;2024-01-06T06:12:43;96322.59;;;3.03;100.00
62025;BME280;47978;49.118;12.146;2024-01-06T06:16:44;96329.72;;;2.99;100.00
62025;BME280;47978;49.118;12.146;2024-01-06T06:20:46;96332.50;;;2.93;100.00
62025;BME280;47978;49.118;12.146;2024-01-06T06:24:49;96336.34;;;2.87;100.00
62025;BME280;47978;49.118;12.146;2024-01-06T06:28:50;96339.97;;;2.83;100.00
62025;BME280;47978;49.118;12.146;2024-01-06T06:32:52;96343.53;;;2.78;100.00
62025;BME280;47978;49.118;12.146;2024-01-06T06:36:53;96343.31;;;2.69;100.00
62025;BME280;47978;49.118;12.146;2024-01-06T06:40:56;96354.72;;;2.82;100.00
62025;BME280;47978;49.118;12.146;2024-01-06T06:44:58;96368.41;;;3.11;100.00
62025;BME280;47978;49.118;12.146;2024-01-06T06:48:59;96382.13;;;3.01;100.00
62025;BME280;47978;49.118;12.146;2024-01-06T06:53:01;96391.63;;;2.69;100.00
62025;BME280;47978;49.118;12.146;2024-01-06T06:57:04;96391.06;;;2.72;100.00
62025;BME280;47978;49.118;12.146;2024-01-06T07:01:06;96403.72;;;2.97;100.00
62025;BME280;47978;49.118;12.146;2024-01-06T07:05:08;96403.69;;;2.63;100.00
62025;BME280;47978;49.118;12.146;2024-01-06T07:09:09;96411.94;;;2.47;100.00
62025;BME280;47978;49.118;12.146;2024-01-06T07:13:12;96425.31;;;2.54;100.00
62025;BME280;47978;49.118;12.146;2024-01-06T07:17:14;96429.19;;;2.87;100.00
62025;BME280;47978;49.118;12.146;2024-01-06T07:21:15;96439.09;;;2.73;100.00
62025;BME280;47978;49.118;12.146;2024-01-06T07:25:17;96443.03;;;2.52;100.00
62025;BME280;47978;49.118;12.146;2024-01-06T07:29:20;96447.16;;;2.44;100.00
62025;BME280;47978;49.118;12.146;2024-01-06T07:33:21;96440.09;;;2.43;100.00
62025;BME280;47978;49.118;12.146;2024-01-06T07:37:23;96444.72;;;2.42;100.00
62025;BME280;47978;49.118;12.146;2024-01-06T07:41:24;96452.59;;;2.49;100.00
62025;BME280;47978;49.118;12.146;2024-01-06T07:45:27;96457.81;;;2.45;100.00
62025;BME280;47978;49.118;12.146;2024-01-06T07:49:29;96456.09;;;2.65;100.00
62025;BME280;47978;49.118;12.146;2024-01-06T07:53:31;96454.97;;;2.66;100.00
62025;BME280;47978;49.118;12.146;2024-01-06T07:57:32;96459.31;;;2.67;100.00
62025;BME280;47978;49.118;12.146;2024-01-06T08:01:35;96457.00;;;2.95;100.00
62025;BME280;47978;49.118;12.146;2024-01-06T08:05:37;96459.22;;;3.27;100.00
62025;BME280;47978;49.118;12.146;2024-01-06T08:09:38;96455.44;;;3.57;100.00
62025;BME280;47978;49.118;12.146;2024-01-06T08:13:42;96452.31;;;3.40;100.00
62025;BME280;47978;49.118;12.146;2024-01-06T08:17:45;96453.06;;;3.45;100.00
62025;BME280;47978;49.118;12.146;2024-01-06T08:21:46;96460.41;;;3.50;100.00
62025;BME280;47978;49.118;12.146;2024-01-06T08:25:48;96464.22;;;3.83;100.00
62025;BME280;47978;49.118;12.146;2024-01-06T08:29:50;96473.03;;;4.04;100.00
62025;BME280;47978;49.118;12.146;2024-01-06T08:33:53;96485.25;;;4.12;100.00
62025;BME280;47978;49.118;12.146;2024-01-06T08:37:55;96483.72;;;4.00;100.00
62025;BME280;47978;49.118;12.146;2024-01-06T08:41:56;96480.00;;;4.15;100.00
62025;BME280;47978;49.118;12.146;2024-01-06T08:46:02;96485.63;;;4.29;100.00
62025;BME280;47978;49.118;12.146;2024-01-06T08:50:06;96489.09;;;4.11;100.00
62025;BME280;47978;49.118;12.146;2024-01-06T08:54:08;96492.22;;;4.28;100.00
62025;BME280;47978;49.118;12.146;2024-01-06T08:58:10;96496.09;;;4.46;100.00
62025;BME280;47978;49.118;12.146;2024-01-06T09:02:11;96500.63;;;4.32;100.00
62025;BME280;47978;49.118;12.146;2024-01-06T09:06:14;96502.88;;;4.54;100.00
62025;BME280;47978;49.118;12.146;2024-01-06T09:10:16;96502.34;;;4.27;100.00
62025;BME280;47978;49.118;12.146;2024-01-06T09:14:18;96516.16;;;4.41;100.00
62025;BME280;47978;49.118;12.146;2024-01-06T09:18:19;96510.06;;;4.20;100.00
62025;BME280;47978;49.118;12.146;2024-01-06T09:22:23;96513.50;;;4.31;100.00
62025;BME280;47978;49.118;12.146;2024-01-06T09:26:24;96522.31;;;4.52;100.00
62025;BME280;47978;49.118;12.146;2024-01-06T09:30:26;96514.09;;;4.52;100.00
62025;BME280;47978;49.118;12.146;2024-01-06T09:34:27;96519.66;;;4.47;100.00
62025;BME280;47978;49.118;12.146;2024-01-06T09:38:30;96519.56;;;4.52;100.00
62025;BME280;47978;49.118;12.146;2024-01-06T09:42:32;96526.72;;;4.24;100.00
62025;BME280;47978;49.118;12.146;2024-01-06T09:46:34;96515.50;;;4.73;100.00
62025;BME280;47978;49.118;12.146;2024-01-06T09:50:36;96523.78;;;4.15;100.00
62025;BME280;47978;49.118;12.146;2024-01-06T09:54:43;96518.72;;;4.03;100.00
62025;BME280;47978;49.118;12.146;2024-01-06T09:58:47;96528.03;;;4.02;100.00
62025;BME280;47978;49.118;12.146;2024-01-06T10:02:49;96529.41;;;4.00;100.00
62025;BME280;47978;49.118;12.146;2024-01-06T10:06:51;96528.78;;;4.37;100.00
62025;BME280;47978;49.118;12.146;2024-01-06T10:10:54;96527.84;;;3.94;100.00
62025;BME280;47978;49.118;12.146;2024-01-06T10:14:55;96529.41;;;4.29;100.00
62025;BME280;47978;49.118;12.146;2024-01-06T10:18:57;96526.56;;;4.39;100.00
62025;BME280;47978;49.118;12.146;2024-01-06T10:23:04;96530.34;;;4.67;100.00
62025;BME280;47978;49.118;12.146;2024-01-06T10:27:07;96523.13;;;4.28;100.00
62025;BME280;47978;49.118;12.146;2024-01-06T10:31:08;96525.44;;;4.16;100.00
62025;BME280;47978;49.118;12.146;2024-01-06T10:35:10;96513.97;;;4.62;100.00
62025;BME280;47978;49.118;12.146;2024-01-06T10:39:12;96535.41;;;4.55;100.00
62025;BME280;47978;49.118;12.146;2024-01-06T10:43:15;96528.97;;;4.89;100.00
62025;BME280;47978;49.118;12.146;2024-01-06T10:47:17;96534.78;;;4.39;100.00
62025;BME280;47978;49.118;12.146;2024-01-06T10:51:21;96539.97;;;4.12;100.00
62025;BME280;47978;49.118;12.146;2024-01-06T10:55:25;96538.00;;;4.70;100.00
62025;BME280;47978;49.118;12.146;2024-01-06T10:59:29;96540.84;;;4.36;100.00
62025;BME280;47978;49.118;12.146;2024-01-06T11:03:32;96540.66;;;4.76;100.00
62025;BME280;47978;49.118;12.146;2024-01-06T11:07:34;96537.38;;;4.25;100.00
62025;BME280;47978;49.118;12.146;2024-01-06T11:11:36;96536.53;;;4.54;100.00
62025;BME280;47978;49.118;12.146;2024-01-06T11:15:41;96520.81;;;5.08;100.00
62025;BME280;47978;49.118;12.146;2024-01-06T11:19:44;96511.31;;;4.57;100.00
62025;BME280;47978;49.118;12.146;2024-01-06T11:23:46;96509.72;;;4.75;100.00
62025;BME280;47978;49.118;12.146;2024-01-06T11:28:07;96504.97;;;4.62;100.00
62025;BME280;47978;49.118;12.146;2024-01-06T11:32:24;96502.03;;;4.29;100.00
62025;BME280;47978;49.118;12.146;2024-01-06T11:36:26;96506.69;;;4.28;100.00
62025;BME280;47978;49.118;12.146;2024-01-06T11:40:33;96492.91;;;4.39;100.00
62025;BME280;47978;49.118;12.146;2024-01-06T11:44:36;96498.63;;;4.42;100.00
62025;BME280;47978;49.118;12.146;2024-01-06T11:48:39;96507.09;;;4.41;100.00
62025;BME280;47978;49.118;12.146;2024-01-06T11:52:41;96501.75;;;4.31;100.00
62025;BME280;47978;49.118;12.146;2024-01-06T11:56:42;96504.09;;;4.42;100.00
62025;BME280;47978;49.118;12.146;2024-01-06T12:00:44;96509.03;;;4.16;100.00
62025;BME280;47978;49.118;12.146;2024-01-06T12:04:57;96508.63;;;4.52;100.00
62025;BME280;47978;49.118;12.146;2024-01-06T12:09:05;96510.41;;;4.38;100.00
62025;BME280;47978;49.118;12.146;2024-01-06T12:13:07;96510.56;;;4.27;100.00
62025;BME280;47978;49.118;12.146;2024-01-06T12:17:09;96502.28;;;4.33;100.00
62025;BME280;47978;49.118;12.146;2024-01-06T12:21:12;96503.44;;;4.26;100.00
62025;BME280;47978;49.118;12.146;2024-01-06T12:25:14;96504.13;;;4.37;100.00
62025;BME280;47978;49.118;12.146;2024-01-06T12:29:16;96498.03;;;4.45;100.00
62025;BME280;47978;49.118;12.146;2024-01-06T12:33:18;96502.78;;;4.35;100.00
62025;BME280;47978;49.118;12.146;2024-01-06T12:37:22;96509.22;;;4.25;100.00
62025;BME280;47978;49.118;12.146;2024-01-06T12:41:23;96500.53;;;4.42;100.00
62025;BME280;47978;49.118;12.146;2024-01-06T12:45:25;96499.31;;;4.53;100.00
62025;BME280;47978;49.118;12.146;2024-01-06T12:49:26;96483.34;;;4.36;100.00
62025;BME280;47978;49.118;12.146;2024-01-06T12:53:29;96475.28;;;4.50;100.00
62025;BME280;47978;49.118;12.146;2024-01-06T12:57:31;96475.00;;;4.70;100.00
62025;BME280;47978;49.118;12.146;2024-01-06T13:01:32;96482.84;;;4.77;100.00
62025;BME280;47978;49.118;12.146;2024-01-06T13:05:34;96482.56;;;4.97;100.00
62025;BME280;47978;49.118;12.146;2024-01-06T13:09:38;96489.75;;;4.93;100.00
62025;BME280;47978;49.118;12.146;2024-01-06T13:13:40;96483.81;;;4.86;100.00
62025;BME280;47978;49.118;12.146;2024-01-06T13:17:41;96483.00;;;4.67;100.00
62025;BME280;47978;49.118;12.146;2024-01-06T13:21:43;96485.47;;;5.06;100.00
62025;BME280;47978;49.118;12.146;2024-01-06T13:25:46;96491.53;;;5.03;100.00
62025;BME280;47978;49.118;12.146;2024-01-06T13:29:47;96492.47;;;4.74;100.00
62025;BME280;47978;49.118;12.146;2024-01-06T13:33:49;96498.78;;;4.94;100.00
62025;BME280;47978;49.118;12.146;2024-01-06T13:37:51;96499.34;;;4.72;100.00
62025;BME280;47978;49.118;12.146;2024-01-06T13:41:54;96500.94;;;4.54;100.00
62025;BME280;47978;49.118;12.146;2024-01-06T13:45:56;96505.66;;;4.72;100.00
62025;BME280;47978;49.118;12.146;2024-01-06T13:49:57;96514.19;;;4.47;100.00
62025;BME280;47978;49.118;12.146;2024-01-06T13:53:59;96516.47;;;4.35;100.00
62025;BME280;47978;49.118;12.146;2024-01-06T13:58:02;96520.69;;;4.51;100.00
62025;BME280;47978;49.118;12.146;2024-01-06T14:02:05;96521.84;;;4.69;100.00
62025;BME280;47978;49.118;12.146;2024-01-06T14:06:07;96512.25;;;4.47;100.00
62025;BME280;47978;49.118;12.146;2024-01-06T14:10:09;96523.69;;;4.49;100.00
62025;BME280;47978;49.118;12.146;2024-01-06T14:14:12;96528.00;;;4.80;100.00
62025;BME280;47978;49.118;12.146;2024-01-06T14:18:14;96516.63;;;4.72;100.00
62025;BME280;47978;49.118;12.146;2024-01-06T14:22:15;96526.63;;;4.58;100.00
62025;BME280;47978;49.118;12.146;2024-01-06T14:26:17;96536.16;;;4.61;100.00
62025;BME280;47978;49.118;12.146;2024-01-06T14:30:20;96527.31;;;4.45;100.00
62025;BME280;47978;49.118;12.146;2024-01-06T14:34:22;96534.81;;;4.10;100.00
62025;BME280;47978;49.118;12.146;2024-01-06T14:38:23;96535.97;;;4.28;100.00
62025;BME280;47978;49.118;12.146;2024-01-06T14:42:25;96535.63;;;4.35;100.00
62025;BME280;47978;49.118;12.146;2024-01-06T14:46:28;96538.13;;;4.31;100.00
62025;BME280;47978;49.118;12.146;2024-01-06T14:50:30;96544.97;;;4.34;100.00
62025;BME280;47978;49.118;12.146;2024-01-06T14:54:31;96549.47;;;4.19;100.00
62025;BME280;47978;49.118;12.146;2024-01-06T14:58:33;96554.75;;;4.11;100.00
62025;BME280;47978;49.118;12.146;2024-01-06T15:02:36;96555.69;;;4.30;100.00
62025;BME280;47978;49.118;12.146;2024-01-06T15:06:37;96558.03;;;4.42;100.00
62025;BME280;47978;49.118;12.146;2024-01-06T15:10:39;96553.06;;;4.15;100.00
62025;BME280;47978;49.118;12.146;2024-01-06T15:14:41;96558.41;;;4.30;100.00
62025;BME280;47978;49.118;12.146;2024-01-06T15:18:44;96558.84;;;4.13;100.00
62025;BME280;47978;49.118;12.146;2024-01-06T15:22:45;96559.66;;;4.14;100.00
62025;BME280;47978;49.118;12.146;2024-01-06T15:26:47;96559.47;;;4.05;100.00
62025;BME280;47978;49.118;12.146;2024-01-06T15:30:48;96560.66;;;3.94;100.00
62025;BME280;47978;49.118;12.146;2024-01-06T15:34:51;96563.03;;;4.29;100.00
62025;BME280;47978;49.118;12.146;2024-01-06T15:38:53;96569.81;;;4.37;100.00
62025;BME280;47978;49.118;12.146;2024-01-06T15:42:54;96567.97;;;3.98;100.00
62025;BME280;47978;49.118;12.146;2024-01-06T15:46:56;96563.94;;;3.96;100.00
62025;BME280;47978;49.118;12.146;2024-01-06T15:50:59;96573.94;;;4.05;100.00
62025;BME280;47978;49.118;12.146;2024-01-06T15:55:00;96578.91;;;3.98;100.00
62025;BME280;47978;49.118;12.146;2024-01-06T15:59:02;96583.91;;;4.25;100.00
62025;BME280;47978;49.118;12.146;2024-01-06T16:03:04;96572.56;;;3.74;100.00
62025;BME280;47978;49.118;12.146;2024-01-06T16:07:07;96575.94;;;3.95;100.00
62025;BME280;47978;49.118;12.146;2024-01-06T16:11:10;96575.94;;;3.95;100.00
62025;BME280;47978;49.118;12.146;2024-01-06T16:15:11;96576.06;;;3.85;100.00
62025;BME280;47978;49.118;12.146;2024-01-06T16:19:14;96581.16;;;3.96;100.00
62025;BME280;47978;49.118;12.146;2024-01-06T16:23:17;96574.72;;;3.77;100.00
62025;BME280;47978;49.118;12.146;2024-01-06T16:27:20;96584.91;;;4.05;100.00
62025;BME280;47978;49.118;12.146;2024-01-06T16:31:22;96579.91;;;3.78;100.00
62025;BME280;47978;49.118;12.146;2024-01-06T16:35:27;96589.72;;;3.85;100.00
62025;BME280;47978;49.118;12.146;2024-01-06T16:39:29;96591.56;;;3.94;100.00
62025;BME280;47978;49.118;12.146;2024-01-06T16:43:31;96586.84;;;4.00;100.00
62025;BME280;47978;49.118;12.146;2024-01-06T16:47:33;96590.56;;;3.80;100.00
62025;BME280;47978;49.118;12.146;2024-01-06T16:51:35;96600.75;;;3.69;100.00
62025;BME280;47978;49.118;12.146;2024-01-06T16:55:38;96600.72;;;3.74;100.00
62025;BME280;47978;49.118;12.146;2024-01-06T16:59:41;96599.13;;;3.68;100.00
62025;BME280;47978;49.118;12.146;2024-01-06T17:03:42;96598.53;;;3.76;100.00
62025;BME280;47978;49.118;12.146;2024-01-06T17:07:44;96611.09;;;3.77;100.00
62025;BME280;47978;49.118;12.146;2024-01-06T17:11:47;96605.53;;;3.93;100.00
62025;BME280;47978;49.118;12.146;2024-01-06T17:15:49;96596.97;;;3.99;100.00
62025;BME280;47978;49.118;12.146;2024-01-06T17:19:50;96613.66;;;3.98;100.00
62025;BME280;47978;49.118;12.146;2024-01-06T17:23:52;96613.72;;;3.93;100.00
62025;BME280;47978;49.118;12.146;2024-01-06T17:27:55;96608.03;;;3.84;100.00
62025;BME280;47978;49.118;12.146;2024-01-06T17:31:56;96615.59;;;3.97;100.00
62025;BME280;47978;49.118;12.146;2024-01-06T17:35:58;96626.31;;;3.89;100.00
62025;BME280;47978;49.118;12.146;2024-01-06T17:39:59;96626.00;;;3.95;100.00
62025;BME280;47978;49.118;12.146;2024-01-06T17:44:03;96629.66;;;3.80;100.00
62025;BME280;47978;49.118;12.146;2024-01-06T17:48:05;96630.97;;;3.88;100.00
62025;BME280;47978;49.118;12.146;2024-01-06T17:52:07;96631.81;;;3.83;100.00
62025;BME280;47978;49.118;12.146;2024-01-06T17:56:09;96630.94;;;3.49;100.00
62025;BME280;47978;49.118;12.146;2024-01-06T18:00:12;96633.47;;;3.85;100.00
62025;BME280;47978;49.118;12.146;2024-01-06T18:04:14;96628.75;;;3.56;100.00
62025;BME280;47978;49.118;12.146;2024-01-06T18:08:16;96629.78;;;3.65;100.00
62025;BME280;47978;49.118;12.146;2024-01-06T18:12:17;96633.59;;;3.64;100.00
62025;BME280;47978;49.118;12.146;2024-01-06T18:16:20;96640.63;;;3.75;100.00
62025;BME280;47978;49.118;12.146;2024-01-06T18:20:22;96641.72;;;3.74;100.00
62025;BME280;47978;49.118;12.146;2024-01-06T18:24:23;96635.66;;;3.82;100.00
62025;BME280;47978;49.118;12.146;2024-01-06T18:28:25;96640.69;;;3.70;100.00
62025;BME280;47978;49.118;12.146;2024-01-06T18:32:28;96642.94;;;3.53;100.00
62025;BME280;47978;49.118;12.146;2024-01-06T18:36:29;96641.44;;;3.31;100.00
62025;BME280;47978;49.118;12.146;2024-01-06T18:40:31;96638.09;;;3.40;100.00
62025;BME280;47978;49.118;12.146;2024-01-06T18:44:33;96639.50;;;3.32;100.00
62025;BME280;47978;49.118;12.146;2024-01-06T18:48:35;96632.78;;;3.64;100.00
62025;BME280;47978;49.118;12.146;2024-01-06T18:52:37;96640.47;;;3.62;100.00
62025;BME280;47978;49.118;12.146;2024-01-06T18:56:39;96627.94;;;3.50;100.00
62025;BME280;47978;49.118;12.146;2024-01-06T19:00:40;96631.75;;;3.49;100.00
62025;BME280;47978;49.118;12.146;2024-01-06T19:04:43;96632.69;;;3.29;100.00
62025;BME280;47978;49.118;12.146;2024-01-06T19:08:45;96634.22;;;2.96;100.00
62025;BME280;47978;49.118;12.146;2024-01-06T19:12:46;96631.66;;;3.10;100.00
62025;BME280;47978;49.118;12.146;2024-01-06T19:16:48;96634.94;;;3.17;100.00
62025;BME280;47978;49.118;12.146;2024-01-06T19:20:51;96641.31;;;3.52;100.00
62025;BME280;47978;49.118;12.146;2024-01-06T19:24:52;96641.06;;;3.48;100.00
62025;BME280;47978;49.118;12.146;2024-01-06T19:28:54;96649.75;;;3.60;100.00
62025;BME280;47978;49.118;12.146;2024-01-06T19:32:56;96642.94;;;3.53;100.00
62025;BME280;47978;49.118;12.146;2024-01-06T19:36:58;96642.44;;;3.46;100.00
62025;BME280;47978;49.118;12.146;2024-01-06T19:41:00;96635.81;;;3.57;100.00
62025;BME280;47978;49.118;12.146;2024-01-06T19:45:02;96635.38;;;3.40;100.00
62025;BME280;47978;49.118;12.146;2024-01-06T19:49:03;96635.38;;;3.40;100.00
62025;BME280;47978;49.118;12.146;2024-01-06T19:53:07;96628.75;;;3.51;100.00
62025;BME280;47978;49.118;12.146;2024-01-06T19:57:08;96640.81;;;3.45;100.00
62025;BME280;47978;49.118;12.146;2024-01-06T20:01:10;96633.50;;;3.30;100.00
62025;BME280;47978;49.118;12.146;2024-01-06T20:05:12;96631.28;;;3.37;100.00
62025;BME280;47978;49.118;12.146;2024-01-06T20:09:15;96634.06;;;3.27;100.00
62025;BME280;47978;49.118;12.146;2024-01-06T20:13:16;96639.91;;;3.05;100.00
62025;BME280;47978;49.118;12.146;2024-01-06T20:17:18;96641.22;;;3.18;100.00
62025;BME280;47978;49.118;12.146;2024-01-06T20:21:19;96640.97;;;3.14;100.00
62025;BME280;47978;49.118;12.146;2024-01-06T20:25:22;96629.50;;;3.07;100.00
62025;BME280;47978;49.118;12.146;2024-01-06T20:29:24;96632.91;;;3.38;100.00
62025;BME280;47978;49.118;12.146;2024-01-06T20:33:25;96628.56;;;3.37;100.00
62025;BME280;47978;49.118;12.146;2024-01-06T20:37:27;96627.16;;;3.45;100.00
62025;BME280;47978;49.118;12.146;2024-01-06T20:41:30;96630.75;;;3.35;100.00
62025;BME280;47978;49.118;12.146;2024-01-06T20:45:32;96625.00;;;3.42;100.00
62025;BME280;47978;49.118;12.146;2024-01-06T20:49:33;96622.41;;;3.06;100.00
62025;BME280;47978;49.118;12.146;2024-01-06T20:53:35;96623.81;;;2.98;100.00
62025;BME280;47978;49.118;12.146;2024-01-06T20:57:38;96615.91;;;3.02;100.00
62025;BME280;47978;49.118;12.146;2024-01-06T21:01:39;96616.03;;;3.31;100.00
62025;BME280;47978;49.118;12.146;2024-01-06T21:05:41;96616.78;;;3.42;100.00